sensor_id;sensor_type;location;lat;lon;timestamp;temperature;humidity
52125;DHT22;38119;52.710;6.398;2022-12-04T00:01:18;1.80;99.90
52125;DHT22;38119;52.710;6.398;2022-12-04T00:03:44;1.80;99.90
52125;DHT22;38119;52.710;6.398;2022-12-04T00:06:12;1.80;99.90
52125;DHT22;38119;52.710;6.398;2022-12-04T00:08:38;1.80;99.90
52125;DHT22;38119;52.710;6.398;2022-12-04T00:11:06;1.80;99.90
52125;DHT22;38119;52.710;6.398;2022-12-04T00:13:33;1.80;99.90
52125;DHT22;38119;52.710;6.398;2022-12-04T00:15:59;1.80;99.90
52125;DHT22;38119;52.710;6.398;2022-12-04T00:18:25;1.80;99.90
52125;DHT22;38119;52.710;6.398;2022-12-04T00:20:51;1.80;99.90
52125;DHT22;38119;52.710;6.398;2022-12-04T00:23:16;1.80;99.90
52125;DHT22;38119;52.710;6.398;2022-12-04T00:25:42;1.80;99.90
52125;DHT22;38119;52.710;6.398;2022-12-04T00:28:16;1.80;99.90
52125;DHT22;38119;52.710;6.398;2022-12-04T00:30:43;1.80;99.90
52125;DHT22;38119;52.710;6.398;2022-12-04T00:33:09;1.80;99.90
52125;DHT22;38119;52.710;6.398;2022-12-04T00:35:34;1.80;99.90
52125;DHT22;38119;52.710;6.398;2022-12-04T00:38:01;1.80;99.90
52125;DHT22;38119;52.710;6.398;2022-12-04T00:40:27;1.80;99.90
52125;DHT22;38119;52.710;6.398;2022-12-04T00:42:53;1.80;99.90
52125;DHT22;38119;52.710;6.398;2022-12-04T00:45:18;1.80;99.90
52125;DHT22;38119;52.710;6.398;2022-12-04T00:47:44;1.80;99.90
52125;DHT22;38119;52.710;6.398;2022-12-04T00:50:10;1.80;99.90
52125;DHT22;38119;52.710;6.398;2022-12-04T00:52:36;1.80;99.90
52125;DHT22;38119;52.710;6.398;2022-12-04T00:55:02;1.80;99.90
52125;DHT22;38119;52.710;6.398;2022-12-04T00:57:27;1.80;99.90
52125;DHT22;38119;52.710;6.398;2022-12-04T00:59:53;1.80;99.90
52125;DHT22;38119;52.710;6.398;2022-12-04T01:02:18;1.80;99.90
52125;DHT22;38119;52.710;6.398;2022-12-04T01:04:44;1.80;99.90
52125;DHT22;38119;52.710;6.398;2022-12-04T01:07:10;1.80;99.90
52125;DHT22;38119;52.710;6.398;2022-12-04T01:09:35;1.80;99.90
52125;DHT22;38119;52.710;6.398;2022-12-04T01:12:01;1.80;99.90
52125;DHT22;38119;52.710;6.398;2022-12-04T01:14:26;1.80;99.90
52125;DHT22;38119;52.710;6.398;2022-12-04T01:16:52;1.80;99.90
52125;DHT22;38119;52.710;6.398;2022-12-04T01:19:18;1.80;99.90
52125;DHT22;38119;52.710;6.398;2022-12-04T01:21:43;1.80;99.90
52125;DHT22;38119;52.710;6.398;2022-12-04T01:24:09;1.80;99.90
52125;DHT22;38119;52.710;6.398;2022-12-04T01:26:34;1.80;99.90
52125;DHT22;38119;52.710;6.398;2022-12-04T01:29:00;1.80;99.90
52125;DHT22;38119;52.710;6.398;2022-12-04T01:31:26;1.80;99.90
52125;DHT22;38119;52.710;6.398;2022-12-04T01:33:52;1.80;99.90
52125;DHT22;38119;52.710;6.398;2022-12-04T01:36:21;1.80;99.90
52125;DHT22;38119;52.710;6.398;2022-12-04T01:38:48;1.80;99.90
52125;DHT22;38119;52.710;6.398;2022-12-04T01:41:15;1.80;99.90
52125;DHT22;38119;52.710;6.398;2022-12-04T01:43:41;1.80;99.90
52125;DHT22;38119;52.710;6.398;2022-12-04T01:46:07;1.80;99.90
52125;DHT22;38119;52.710;6.398;2022-12-04T01:48:49;1.80;99.90
52125;DHT22;38119;52.710;6.398;2022-12-04T01:53:51;1.80;99.90
52125;DHT22;38119;52.710;6.398;2022-12-04T01:56:18;1.80;99.90
52125;DHT22;38119;52.710;6.398;2022-12-04T01:58:48;1.80;99.90
52125;DHT22;38119;52.710;6.398;2022-12-04T02:01:15;1.80;99.90
52125;DHT22;38119;52.710;6.398;2022-12-04T02:03:41;1.80;99.90
52125;DHT22;38119;52.710;6.398;2022-12-04T02:06:07;1.80;99.90
52125;DHT22;38119;52.710;6.398;2022-12-04T02:08:33;1.80;99.90
52125;DHT22;38119;52.710;6.398;2022-12-04T02:22:44;1.80;99.90
52125;DHT22;38119;52.710;6.398;2022-12-04T02:28:07;1.80;99.90
52125;DHT22;38119;52.710;6.398;2022-12-04T02:30:37;1.70;99.90
52125;DHT22;38119;52.710;6.398;2022-12-04T02:33:20;1.80;99.90
52125;DHT22;38119;52.710;6.398;2022-12-04T02:36:00;1.70;99.90
52125;DHT22;38119;52.710;6.398;2022-12-04T02:38:35;1.70;99.90
52125;DHT22;38119;52.710;6.398;2022-12-04T02:44:19;1.70;99.90
52125;DHT22;38119;52.710;6.398;2022-12-04T02:46:50;1.70;99.90
52125;DHT22;38119;52.710;6.398;2022-12-04T02:49:22;1.70;99.90
52125;DHT22;38119;52.710;6.398;2022-12-04T02:51:49;1.70;99.90
52125;DHT22;38119;52.710;6.398;2022-12-04T02:54:22;1.70;99.90
52125;DHT22;38119;52.710;6.398;2022-12-04T02:56:50;1.70;99.90
52125;DHT22;38119;52.710;6.398;2022-12-04T02:59:29;1.80;99.90
52125;DHT22;38119;52.710;6.398;2022-12-04T03:01:59;1.70;99.90
52125;DHT22;38119;52.710;6.398;2022-12-04T03:04:27;1.70;99.90
52125;DHT22;38119;52.710;6.398;2022-12-04T03:07:00;1.70;99.90
52125;DHT22;38119;52.710;6.398;2022-12-04T03:09:58;1.70;99.90
52125;DHT22;38119;52.710;6.398;2022-12-04T03:12:39;1.70;99.90
52125;DHT22;38119;52.710;6.398;2022-12-04T03:15:14;1.70;99.90
52125;DHT22;38119;52.710;6.398;2022-12-04T03:17:51;1.70;99.90
52125;DHT22;38119;52.710;6.398;2022-12-04T03:20:18;1.70;99.90
52125;DHT22;38119;52.710;6.398;2022-12-04T03:22:50;1.70;99.90
52125;DHT22;38119;52.710;6.398;2022-12-04T03:25:18;1.70;99.90
52125;DHT22;38119;52.710;6.398;2022-12-04T03:27:53;1.70;99.90
52125;DHT22;38119;52.710;6.398;2022-12-04T03:30:22;1.70;99.90
52125;DHT22;38119;52.710;6.398;2022-12-04T03:32:55;1.70;99.90
52125;DHT22;38119;52.710;6.398;2022-12-04T03:38:03;1.70;99.90
52125;DHT22;38119;52.710;6.398;2022-12-04T03:40:37;1.70;99.90
52125;DHT22;38119;52.710;6.398;2022-12-04T03:43:05;1.70;99.90
52125;DHT22;38119;52.710;6.398;2022-12-04T03:48:14;1.70;99.90
52125;DHT22;38119;52.710;6.398;2022-12-04T03:50:47;1.70;99.90
52125;DHT22;38119;52.710;6.398;2022-12-04T03:53:24;1.70;99.90
52125;DHT22;38119;52.710;6.398;2022-12-04T03:56:01;2.50;99.90
52125;DHT22;38119;52.710;6.398;2022-12-04T03:58:31;1.70;99.90
52125;DHT22;38119;52.710;6.398;2022-12-04T04:01:00;1.70;99.90
52125;DHT22;38119;52.710;6.398;2022-12-04T04:03:31;1.70;99.90
52125;DHT22;38119;52.710;6.398;2022-12-04T04:06:31;1.70;99.90
52125;DHT22;38119;52.710;6.398;2022-12-04T04:09:05;1.70;99.90
52125;DHT22;38119;52.710;6.398;2022-12-04T04:11:42;1.70;99.90
52125;DHT22;38119;52.710;6.398;2022-12-04T04:14:30;1.70;99.90
52125;DHT22;38119;52.710;6.398;2022-12-04T04:17:21;1.70;99.90
52125;DHT22;38119;52.710;6.398;2022-12-04T04:20:17;1.70;99.90
52125;DHT22;38119;52.710;6.398;2022-12-04T04:23:04;1.70;99.90
52125;DHT22;38119;52.710;6.398;2022-12-04T04:25:50;1.70;99.90
52125;DHT22;38119;52.710;6.398;2022-12-04T04:28:38;1.70;99.90
52125;DHT22;38119;52.710;6.398;2022-12-04T04:33:46;1.70;99.90
52125;DHT22;38119;52.710;6.398;2022-12-04T04:36:37;1.70;99.90
52125;DHT22;38119;52.710;6.398;2022-12-04T04:39:16;1.70;99.90
52125;DHT22;38119;52.710;6.398;2022-12-04T04:41:53;1.70;99.90
52125;DHT22;38119;52.710;6.398;2022-12-04T04:44:45;1.70;99.90
52125;DHT22;38119;52.710;6.398;2022-12-04T04:47:17;1.70;99.90
52125;DHT22;38119;52.710;6.398;2022-12-04T04:49:45;1.70;99.90
52125;DHT22;38119;52.710;6.398;2022-12-04T04:52:11;1.70;99.90
52125;DHT22;38119;52.710;6.398;2022-12-04T04:54:37;1.70;99.90
52125;DHT22;38119;52.710;6.398;2022-12-04T04:57:04;1.70;99.90
52125;DHT22;38119;52.710;6.398;2022-12-04T04:59:29;1.70;99.90
52125;DHT22;38119;52.710;6.398;2022-12-04T05:01:55;1.70;99.90
52125;DHT22;38119;52.710;6.398;2022-12-04T05:04:21;1.70;99.90
52125;DHT22;38119;52.710;6.398;2022-12-04T05:06:46;1.70;99.90
52125;DHT22;38119;52.710;6.398;2022-12-04T05:09:13;1.70;99.90
52125;DHT22;38119;52.710;6.398;2022-12-04T05:11:39;1.60;99.90
52125;DHT22;38119;52.710;6.398;2022-12-04T05:14:04;1.70;99.90
52125;DHT22;38119;52.710;6.398;2022-12-04T05:16:30;1.70;99.90
52125;DHT22;38119;52.710;6.398;2022-12-04T05:18:57;1.70;99.90
52125;DHT22;38119;52.710;6.398;2022-12-04T05:21:41;1.70;99.90
52125;DHT22;38119;52.710;6.398;2022-12-04T05:24:08;1.60;99.90
52125;DHT22;38119;52.710;6.398;2022-12-04T05:26:33;1.70;99.90
52125;DHT22;38119;52.710;6.398;2022-12-04T05:28:59;1.70;99.90
52125;DHT22;38119;52.710;6.398;2022-12-04T05:31:25;1.60;99.90
52125;DHT22;38119;52.710;6.398;2022-12-04T05:33:50;1.70;99.90
52125;DHT22;38119;52.710;6.398;2022-12-04T05:36:16;1.70;99.90
52125;DHT22;38119;52.710;6.398;2022-12-04T05:38:41;1.70;99.90
52125;DHT22;38119;52.710;6.398;2022-12-04T05:41:07;1.70;99.90
52125;DHT22;38119;52.710;6.398;2022-12-04T05:43:33;1.60;99.90
52125;DHT22;38119;52.710;6.398;2022-12-04T05:46:03;1.70;99.90
52125;DHT22;38119;52.710;6.398;2022-12-04T05:48:29;1.70;99.90
52125;DHT22;38119;52.710;6.398;2022-12-04T05:50:55;1.70;99.90
52125;DHT22;38119;52.710;6.398;2022-12-04T05:53:21;1.60;99.90
52125;DHT22;38119;52.710;6.398;2022-12-04T05:55:56;1.70;99.90
52125;DHT22;38119;52.710;6.398;2022-12-04T05:58:22;1.70;99.90
52125;DHT22;38119;52.710;6.398;2022-12-04T06:00:48;1.70;99.90
52125;DHT22;38119;52.710;6.398;2022-12-04T06:03:13;1.70;99.90
52125;DHT22;38119;52.710;6.398;2022-12-04T06:05:39;1.60;99.90
52125;DHT22;38119;52.710;6.398;2022-12-04T06:08:04;1.60;99.90
52125;DHT22;38119;52.710;6.398;2022-12-04T06:10:30;1.60;99.90
52125;DHT22;38119;52.710;6.398;2022-12-04T06:12:55;1.60;99.90
52125;DHT22;38119;52.710;6.398;2022-12-04T06:15:23;1.60;99.90
52125;DHT22;38119;52.710;6.398;2022-12-04T06:17:49;1.60;99.90
52125;DHT22;38119;52.710;6.398;2022-12-04T06:20:14;1.60;99.90
52125;DHT22;38119;52.710;6.398;2022-12-04T06:22:40;1.60;99.90
52125;DHT22;38119;52.710;6.398;2022-12-04T06:25:06;1.60;99.90
52125;DHT22;38119;52.710;6.398;2022-12-04T06:27:31;1.60;99.90
52125;DHT22;38119;52.710;6.398;2022-12-04T06:29:57;1.60;99.90
52125;DHT22;38119;52.710;6.398;2022-12-04T06:32:23;1.60;99.90
52125;DHT22;38119;52.710;6.398;2022-12-04T06:34:50;1.60;99.90
52125;DHT22;38119;52.710;6.398;2022-12-04T06:37:17;1.60;99.90
52125;DHT22;38119;52.710;6.398;2022-12-04T06:39:43;1.60;99.90
52125;DHT22;38119;52.710;6.398;2022-12-04T06:42:08;1.60;99.90
52125;DHT22;38119;52.710;6.398;2022-12-04T06:44:34;1.60;99.90
52125;DHT22;38119;52.710;6.398;2022-12-04T06:47:00;1.60;99.90
52125;DHT22;38119;52.710;6.398;2022-12-04T06:49:25;1.60;99.90
52125;DHT22;38119;52.710;6.398;2022-12-04T06:51:51;1.60;99.90
52125;DHT22;38119;52.710;6.398;2022-12-04T06:54:17;1.60;99.90
52125;DHT22;38119;52.710;6.398;2022-12-04T06:56:42;1.60;99.90
52125;DHT22;38119;52.710;6.398;2022-12-04T06:59:09;1.60;99.90
52125;DHT22;38119;52.710;6.398;2022-12-04T07:01:35;1.60;99.90
52125;DHT22;38119;52.710;6.398;2022-12-04T07:04:02;1.60;99.90
52125;DHT22;38119;52.710;6.398;2022-12-04T07:06:32;1.60;99.90
52125;DHT22;38119;52.710;6.398;2022-12-04T07:09:05;1.60;99.90
52125;DHT22;38119;52.710;6.398;2022-12-04T07:11:31;1.60;99.90
52125;DHT22;38119;52.710;6.398;2022-12-04T07:13:57;1.60;99.90
52125;DHT22;38119;52.710;6.398;2022-12-04T07:16:24;1.60;99.90
52125;DHT22;38119;52.710;6.398;2022-12-04T07:18:50;1.60;99.90
52125;DHT22;38119;52.710;6.398;2022-12-04T07:21:20;1.60;99.90
52125;DHT22;38119;52.710;6.398;2022-12-04T07:23:51;1.60;99.90
52125;DHT22;38119;52.710;6.398;2022-12-04T07:26:18;1.60;99.90
52125;DHT22;38119;52.710;6.398;2022-12-04T07:28:44;1.60;99.90
52125;DHT22;38119;52.710;6.398;2022-12-04T07:31:12;1.50;99.90
52125;DHT22;38119;52.710;6.398;2022-12-04T07:33:39;1.60;99.90
52125;DHT22;38119;52.710;6.398;2022-12-04T07:36:07;1.60;99.90
52125;DHT22;38119;52.710;6.398;2022-12-04T07:38:33;1.60;99.90
52125;DHT22;38119;52.710;6.398;2022-12-04T07:41:00;1.50;99.90
52125;DHT22;38119;52.710;6.398;2022-12-04T07:43:28;1.60;99.90
52125;DHT22;38119;52.710;6.398;2022-12-04T07:45:54;1.60;99.90
52125;DHT22;38119;52.710;6.398;2022-12-04T07:48:19;1.60;99.90
52125;DHT22;38119;52.710;6.398;2022-12-04T07:50:45;1.60;99.90
52125;DHT22;38119;52.710;6.398;2022-12-04T07:53:11;1.60;99.90
52125;DHT22;38119;52.710;6.398;2022-12-04T07:55:36;1.60;99.90
52125;DHT22;38119;52.710;6.398;2022-12-04T07:58:02;1.60;99.90
52125;DHT22;38119;52.710;6.398;2022-12-04T08:00:28;1.60;99.90
52125;DHT22;38119;52.710;6.398;2022-12-04T08:02:54;1.60;99.90
52125;DHT22;38119;52.710;6.398;2022-12-04T08:05:20;1.60;99.90
52125;DHT22;38119;52.710;6.398;2022-12-04T08:07:45;1.60;99.90
52125;DHT22;38119;52.710;6.398;2022-12-04T08:10:11;1.60;99.90
52125;DHT22;38119;52.710;6.398;2022-12-04T08:12:37;1.60;99.90
52125;DHT22;38119;52.710;6.398;2022-12-04T08:15:03;1.60;99.90
52125;DHT22;38119;52.710;6.398;2022-12-04T08:17:29;1.60;99.90
52125;DHT22;38119;52.710;6.398;2022-12-04T08:19:55;1.60;99.90
52125;DHT22;38119;52.710;6.398;2022-12-04T08:22:21;1.60;99.90
52125;DHT22;38119;52.710;6.398;2022-12-04T08:24:47;1.60;99.90
52125;DHT22;38119;52.710;6.398;2022-12-04T08:27:13;1.60;99.90
52125;DHT22;38119;52.710;6.398;2022-12-04T08:29:38;1.60;99.90
52125;DHT22;38119;52.710;6.398;2022-12-04T08:32:04;1.60;99.90
52125;DHT22;38119;52.710;6.398;2022-12-04T08:34:30;1.60;99.90
52125;DHT22;38119;52.710;6.398;2022-12-04T08:36:56;1.60;99.90
52125;DHT22;38119;52.710;6.398;2022-12-04T08:39:21;1.60;99.90
52125;DHT22;38119;52.710;6.398;2022-12-04T08:41:47;1.60;99.90
52125;DHT22;38119;52.710;6.398;2022-12-04T08:44:13;1.60;99.90
52125;DHT22;38119;52.710;6.398;2022-12-04T08:46:39;1.60;99.90
52125;DHT22;38119;52.710;6.398;2022-12-04T08:49:04;1.60;99.90
52125;DHT22;38119;52.710;6.398;2022-12-04T08:51:31;1.60;99.90
52125;DHT22;38119;52.710;6.398;2022-12-04T08:54:06;1.60;99.90
52125;DHT22;38119;52.710;6.398;2022-12-04T08:56:33;1.60;99.90
52125;DHT22;38119;52.710;6.398;2022-12-04T08:59:00;1.70;99.90
52125;DHT22;38119;52.710;6.398;2022-12-04T09:01:27;1.70;99.90
52125;DHT22;38119;52.710;6.398;2022-12-04T09:03:53;1.70;99.90
52125;DHT22;38119;52.710;6.398;2022-12-04T09:06:19;1.70;99.90
52125;DHT22;38119;52.710;6.398;2022-12-04T09:08:45;1.70;99.90
52125;DHT22;38119;52.710;6.398;2022-12-04T09:11:12;1.70;99.90
52125;DHT22;38119;52.710;6.398;2022-12-04T09:13:39;1.70;99.90
52125;DHT22;38119;52.710;6.398;2022-12-04T09:16:10;1.70;99.90
52125;DHT22;38119;52.710;6.398;2022-12-04T09:18:37;1.70;99.90
52125;DHT22;38119;52.710;6.398;2022-12-04T09:21:06;1.70;99.90
52125;DHT22;38119;52.710;6.398;2022-12-04T09:23:33;1.70;99.90
52125;DHT22;38119;52.710;6.398;2022-12-04T09:25:58;1.70;99.90
52125;DHT22;38119;52.710;6.398;2022-12-04T09:28:24;1.70;99.90
52125;DHT22;38119;52.710;6.398;2022-12-04T09:31:02;1.70;99.90
52125;DHT22;38119;52.710;6.398;2022-12-04T09:33:28;1.80;99.90
52125;DHT22;38119;52.710;6.398;2022-12-04T09:35:57;1.80;99.90
52125;DHT22;38119;52.710;6.398;2022-12-04T09:38:22;1.80;99.90
52125;DHT22;38119;52.710;6.398;2022-12-04T09:41:11;1.80;99.90
52125;DHT22;38119;52.710;6.398;2022-12-04T09:43:52;1.80;99.90
52125;DHT22;38119;52.710;6.398;2022-12-04T09:49:20;1.80;99.90
52125;DHT22;38119;52.710;6.398;2022-12-04T09:51:49;1.80;99.90
52125;DHT22;38119;52.710;6.398;2022-12-04T09:54:23;1.80;99.90
52125;DHT22;38119;52.710;6.398;2022-12-04T09:56:54;1.80;99.90
52125;DHT22;38119;52.710;6.398;2022-12-04T09:59:25;1.80;99.90
52125;DHT22;38119;52.710;6.398;2022-12-04T10:01:57;1.80;99.90
52125;DHT22;38119;52.710;6.398;2022-12-04T10:04:25;1.90;99.90
52125;DHT22;38119;52.710;6.398;2022-12-04T10:07:09;1.90;99.90
52125;DHT22;38119;52.710;6.398;2022-12-04T10:15:09;1.90;99.90
52125;DHT22;38119;52.710;6.398;2022-12-04T10:26:24;2.00;99.90
52125;DHT22;38119;52.710;6.398;2022-12-04T10:29:07;2.00;99.90
52125;DHT22;38119;52.710;6.398;2022-12-04T10:31:38;2.00;99.90
52125;DHT22;38119;52.710;6.398;2022-12-04T10:34:11;2.00;99.90
52125;DHT22;38119;52.710;6.398;2022-12-04T10:36:39;2.00;99.90
52125;DHT22;38119;52.710;6.398;2022-12-04T10:39:32;2.00;99.90
52125;DHT22;38119;52.710;6.398;2022-12-04T10:44:38;2.00;99.90
52125;DHT22;38119;52.710;6.398;2022-12-04T10:47:05;2.00;99.90
52125;DHT22;38119;52.710;6.398;2022-12-04T10:49:33;2.10;99.90
52125;DHT22;38119;52.710;6.398;2022-12-04T10:51:59;2.10;99.90
52125;DHT22;38119;52.710;6.398;2022-12-04T10:57:01;2.10;99.90
52125;DHT22;38119;52.710;6.398;2022-12-04T10:59:28;2.10;99.90
52125;DHT22;38119;52.710;6.398;2022-12-04T11:02:04;2.10;99.90
52125;DHT22;38119;52.710;6.398;2022-12-04T11:04:36;2.20;99.90
52125;DHT22;38119;52.710;6.398;2022-12-04T11:07:18;2.20;99.90
52125;DHT22;38119;52.710;6.398;2022-12-04T11:12:32;2.20;99.90
52125;DHT22;38119;52.710;6.398;2022-12-04T11:17:32;2.20;99.90
52125;DHT22;38119;52.710;6.398;2022-12-04T11:20:07;2.20;99.90
52125;DHT22;38119;52.710;6.398;2022-12-04T11:22:53;2.20;99.90
52125;DHT22;38119;52.710;6.398;2022-12-04T11:25:20;2.30;99.90
52125;DHT22;38119;52.710;6.398;2022-12-04T11:27:52;2.30;99.90
52125;DHT22;38119;52.710;6.398;2022-12-04T11:30:24;2.20;99.90
52125;DHT22;38119;52.710;6.398;2022-12-04T11:32:51;2.30;99.90
52125;DHT22;38119;52.710;6.398;2022-12-04T11:35:24;2.20;99.90
52125;DHT22;38119;52.710;6.398;2022-12-04T11:38:14;2.30;99.90
52125;DHT22;38119;52.710;6.398;2022-12-04T11:40:49;2.30;99.90
52125;DHT22;38119;52.710;6.398;2022-12-04T11:43:17;2.30;99.90
52125;DHT22;38119;52.710;6.398;2022-12-04T11:45:58;2.30;99.90
52125;DHT22;38119;52.710;6.398;2022-12-04T11:48:24;2.40;99.90
52125;DHT22;38119;52.710;6.398;2022-12-04T11:58:56;2.40;99.90
52125;DHT22;38119;52.710;6.398;2022-12-04T12:01:41;2.40;99.90
52125;DHT22;38119;52.710;6.398;2022-12-04T12:09:44;2.50;99.90
52125;DHT22;38119;52.710;6.398;2022-12-04T12:17:20;2.50;99.90
52125;DHT22;38119;52.710;6.398;2022-12-04T12:22:57;2.50;99.90
52125;DHT22;38119;52.710;6.398;2022-12-04T12:25:37;2.50;99.90
52125;DHT22;38119;52.710;6.398;2022-12-04T12:28:36;2.50;99.90
52125;DHT22;38119;52.710;6.398;2022-12-04T12:34:17;2.60;99.90
52125;DHT22;38119;52.710;6.398;2022-12-04T12:36:47;2.60;99.90
52125;DHT22;38119;52.710;6.398;2022-12-04T12:39:19;2.60;99.90
52125;DHT22;38119;52.710;6.398;2022-12-04T12:41:53;2.60;99.90
52125;DHT22;38119;52.710;6.398;2022-12-04T12:44:24;2.60;99.90
52125;DHT22;38119;52.710;6.398;2022-12-04T12:46:55;2.60;99.90
52125;DHT22;38119;52.710;6.398;2022-12-04T12:49:34;2.70;99.90
52125;DHT22;38119;52.710;6.398;2022-12-04T12:54:49;2.70;99.90
52125;DHT22;38119;52.710;6.398;2022-12-04T12:57:35;2.70;99.90
52125;DHT22;38119;52.710;6.398;2022-12-04T13:00:21;2.70;99.90
52125;DHT22;38119;52.710;6.398;2022-12-04T13:05:48;2.70;99.90
52125;DHT22;38119;52.710;6.398;2022-12-04T13:10:53;2.80;99.90
52125;DHT22;38119;52.710;6.398;2022-12-04T13:13:25;2.80;99.90
52125;DHT22;38119;52.710;6.398;2022-12-04T13:16:00;2.80;99.90
52125;DHT22;38119;52.710;6.398;2022-12-04T13:18:36;2.80;99.90
52125;DHT22;38119;52.710;6.398;2022-12-04T13:21:04;2.80;99.90
52125;DHT22;38119;52.710;6.398;2022-12-04T13:23:44;2.80;99.90
52125;DHT22;38119;52.710;6.398;2022-12-04T13:31:51;2.80;99.90
52125;DHT22;38119;52.710;6.398;2022-12-04T13:40:45;2.80;99.90
52125;DHT22;38119;52.710;6.398;2022-12-04T13:46:29;2.80;99.90
52125;DHT22;38119;52.710;6.398;2022-12-04T13:51:41;2.80;99.90
52125;DHT22;38119;52.710;6.398;2022-12-04T13:56:37;2.80;99.90
52125;DHT22;38119;52.710;6.398;2022-12-04T13:59:05;2.80;99.90
52125;DHT22;38119;52.710;6.398;2022-12-04T14:01:45;2.80;99.90
52125;DHT22;38119;52.710;6.398;2022-12-04T14:04:26;2.80;99.90
52125;DHT22;38119;52.710;6.398;2022-12-04T14:06:54;2.80;99.90
52125;DHT22;38119;52.710;6.398;2022-12-04T14:09:33;2.80;99.90
52125;DHT22;38119;52.710;6.398;2022-12-04T14:12:05;2.80;99.90
52125;DHT22;38119;52.710;6.398;2022-12-04T14:14:51;2.80;99.90
52125;DHT22;38119;52.710;6.398;2022-12-04T14:17:19;2.80;99.90
52125;DHT22;38119;52.710;6.398;2022-12-04T14:19:53;2.80;99.90
52125;DHT22;38119;52.710;6.398;2022-12-04T14:22:40;2.80;99.90
52125;DHT22;38119;52.710;6.398;2022-12-04T14:30:24;2.80;99.90
52125;DHT22;38119;52.710;6.398;2022-12-04T14:33:11;2.80;99.90
52125;DHT22;38119;52.710;6.398;2022-12-04T14:38:22;2.80;99.90
52125;DHT22;38119;52.710;6.398;2022-12-04T14:40:54;2.80;99.90
52125;DHT22;38119;52.710;6.398;2022-12-04T14:43:40;2.80;99.90
52125;DHT22;38119;52.710;6.398;2022-12-04T14:46:20;2.80;99.90
52125;DHT22;38119;52.710;6.398;2022-12-04T14:52:04;2.80;99.90
52125;DHT22;38119;52.710;6.398;2022-12-04T14:54:39;2.80;99.90
52125;DHT22;38119;52.710;6.398;2022-12-04T14:59:52;2.80;99.90
52125;DHT22;38119;52.710;6.398;2022-12-04T15:02:22;2.80;99.90
52125;DHT22;38119;52.710;6.398;2022-12-04T15:04:49;2.80;99.90
52125;DHT22;38119;52.710;6.398;2022-12-04T15:07:23;2.80;99.90
52125;DHT22;38119;52.710;6.398;2022-12-04T15:10:01;2.80;99.90
52125;DHT22;38119;52.710;6.398;2022-12-04T15:12:52;2.80;99.90
52125;DHT22;38119;52.710;6.398;2022-12-04T15:15:25;2.80;99.90
52125;DHT22;38119;52.710;6.398;2022-12-04T15:20:20;2.80;99.90
52125;DHT22;38119;52.710;6.398;2022-12-04T15:22:47;2.90;99.90
52125;DHT22;38119;52.710;6.398;2022-12-04T15:25:18;2.80;99.90
52125;DHT22;38119;52.710;6.398;2022-12-04T15:27:47;2.80;99.90
52125;DHT22;38119;52.710;6.398;2022-12-04T15:30:23;2.80;99.90
52125;DHT22;38119;52.710;6.398;2022-12-04T15:32:52;2.80;99.90
52125;DHT22;38119;52.710;6.398;2022-12-04T15:35:27;2.90;99.90
52125;DHT22;38119;52.710;6.398;2022-12-04T15:37:54;2.80;99.90
52125;DHT22;38119;52.710;6.398;2022-12-04T15:40:23;2.80;99.90
52125;DHT22;38119;52.710;6.398;2022-12-04T15:42:49;2.90;99.90
52125;DHT22;38119;52.710;6.398;2022-12-04T15:52:52;2.90;99.90
52125;DHT22;38119;52.710;6.398;2022-12-04T15:55:21;2.90;99.90
52125;DHT22;38119;52.710;6.398;2022-12-04T15:57:56;2.90;99.90
52125;DHT22;38119;52.710;6.398;2022-12-04T16:00:33;2.80;99.90
52125;DHT22;38119;52.710;6.398;2022-12-04T16:03:01;2.80;99.90
52125;DHT22;38119;52.710;6.398;2022-12-04T16:05:33;2.80;99.90
52125;DHT22;38119;52.710;6.398;2022-12-04T16:08:27;2.90;99.90
52125;DHT22;38119;52.710;6.398;2022-12-04T16:13:48;2.90;99.90
52125;DHT22;38119;52.710;6.398;2022-12-04T16:16:19;2.90;99.90
52125;DHT22;38119;52.710;6.398;2022-12-04T16:18:46;2.90;99.90
52125;DHT22;38119;52.710;6.398;2022-12-04T16:21:15;2.90;99.90
52125;DHT22;38119;52.710;6.398;2022-12-04T16:23:42;2.90;99.90
52125;DHT22;38119;52.710;6.398;2022-12-04T16:26:17;2.90;99.90
52125;DHT22;38119;52.710;6.398;2022-12-04T16:28:43;2.90;99.90
52125;DHT22;38119;52.710;6.398;2022-12-04T16:31:13;2.90;99.90
52125;DHT22;38119;52.710;6.398;2022-12-04T16:33:39;2.90;99.90
52125;DHT22;38119;52.710;6.398;2022-12-04T16:36:05;3.00;99.90
52125;DHT22;38119;52.710;6.398;2022-12-04T16:38:31;3.00;99.90
52125;DHT22;38119;52.710;6.398;2022-12-04T16:40:56;3.10;99.90
52125;DHT22;38119;52.710;6.398;2022-12-04T16:43:22;3.00;99.90
52125;DHT22;38119;52.710;6.398;2022-12-04T16:45:51;3.30;99.90
52125;DHT22;38119;52.710;6.398;2022-12-04T16:48:17;2.90;99.90
52125;DHT22;38119;52.710;6.398;2022-12-04T16:50:43;3.00;99.90
52125;DHT22;38119;52.710;6.398;2022-12-04T16:53:17;3.00;99.90
52125;DHT22;38119;52.710;6.398;2022-12-04T16:55:46;3.00;99.90
52125;DHT22;38119;52.710;6.398;2022-12-04T16:58:12;3.00;99.90
52125;DHT22;38119;52.710;6.398;2022-12-04T17:00:38;3.00;99.90
52125;DHT22;38119;52.710;6.398;2022-12-04T17:03:11;3.00;99.90
52125;DHT22;38119;52.710;6.398;2022-12-04T17:05:41;3.00;99.90
52125;DHT22;38119;52.710;6.398;2022-12-04T17:08:06;3.00;99.90
52125;DHT22;38119;52.710;6.398;2022-12-04T17:10:32;3.00;99.90
52125;DHT22;38119;52.710;6.398;2022-12-04T17:12:57;3.00;99.90
52125;DHT22;38119;52.710;6.398;2022-12-04T17:15:23;3.00;99.90
52125;DHT22;38119;52.710;6.398;2022-12-04T17:17:49;3.00;99.90
52125;DHT22;38119;52.710;6.398;2022-12-04T17:20:17;3.00;99.90
52125;DHT22;38119;52.710;6.398;2022-12-04T17:22:43;3.00;99.90
52125;DHT22;38119;52.710;6.398;2022-12-04T17:25:10;3.00;99.90
52125;DHT22;38119;52.710;6.398;2022-12-04T17:27:35;3.00;99.90
52125;DHT22;38119;52.710;6.398;2022-12-04T17:30:02;3.00;99.90
52125;DHT22;38119;52.710;6.398;2022-12-04T17:32:29;3.00;99.90
52125;DHT22;38119;52.710;6.398;2022-12-04T17:34:55;3.10;99.90
52125;DHT22;38119;52.710;6.398;2022-12-04T17:37:21;3.00;99.90
52125;DHT22;38119;52.710;6.398;2022-12-04T17:39:46;3.10;99.90
52125;DHT22;38119;52.710;6.398;2022-12-04T17:42:12;3.10;99.90
52125;DHT22;38119;52.710;6.398;2022-12-04T17:44:41;3.10;99.90
52125;DHT22;38119;52.710;6.398;2022-12-04T17:47:06;3.10;99.90
52125;DHT22;38119;52.710;6.398;2022-12-04T17:49:32;3.10;99.90
52125;DHT22;38119;52.710;6.398;2022-12-04T17:51:58;3.10;99.90
52125;DHT22;38119;52.710;6.398;2022-12-04T17:54:23;3.10;99.90
52125;DHT22;38119;52.710;6.398;2022-12-04T17:56:49;3.20;99.90
52125;DHT22;38119;52.710;6.398;2022-12-04T17:59:15;3.20;99.90
52125;DHT22;38119;52.710;6.398;2022-12-04T18:01:41;3.20;99.90
52125;DHT22;38119;52.710;6.398;2022-12-04T18:04:06;3.20;99.90
52125;DHT22;38119;52.710;6.398;2022-12-04T18:06:36;3.20;99.90
52125;DHT22;38119;52.710;6.398;2022-12-04T18:09:02;3.20;99.90
52125;DHT22;38119;52.710;6.398;2022-12-04T18:11:29;3.20;99.90
52125;DHT22;38119;52.710;6.398;2022-12-04T18:13:59;3.20;99.90
52125;DHT22;38119;52.710;6.398;2022-12-04T18:16:25;3.20;99.90
52125;DHT22;38119;52.710;6.398;2022-12-04T18:18:57;3.20;99.90